createdAt,value
2023-04-08T00:00:41.263Z,99681.56
2023-04-08T00:01:43.523Z,99684.28
2023-04-08T00:02:45.989Z,99683.38
2023-04-08T00:03:48.412Z,99682.31
2023-04-08T00:04:51.038Z,99686.28
2023-04-08T00:05:53.249Z,99680.06
2023-04-08T00:06:56.099Z,99690.28
2023-04-08T00:07:58.249Z,99682.25
2023-04-08T00:09:00.416Z,99676.84
2023-04-08T00:10:02.824Z,99687.19
2023-04-08T00:11:05.571Z,99683.56
2023-04-08T00:12:07.738Z,99682.03
2023-04-08T00:13:10.395Z,99687.38
2023-04-08T00:14:12.614Z,99688.34
2023-04-08T00:15:14.768Z,99680.09
2023-04-08T00:16:17.130Z,99689.09
2023-04-08T00:17:19.402Z,99685.88
2023-04-08T00:18:21.622Z,99689.97
2023-04-08T00:19:23.826Z,99693.44
2023-04-08T00:20:26.041Z,99686.38
2023-04-08T00:21:28.197Z,99687.91
2023-04-08T00:22:30.431Z,99687.97
2023-04-08T00:23:32.611Z,99687.31
2023-04-08T00:24:34.744Z,99675.97
2023-04-08T00:25:36.947Z,99675.66
2023-04-08T00:26:39.092Z,99683.63
2023-04-08T00:27:41.286Z,99679.06
2023-04-08T00:28:43.518Z,99690.63
2023-04-08T00:29:46.483Z,99682.97
2023-04-08T00:30:48.659Z,99683.72
2023-04-08T00:31:51.246Z,99688.06
2023-04-08T00:32:53.556Z,99685.38
2023-04-08T00:33:56.012Z,99684.34
2023-04-08T00:34:58.743Z,99687.88
2023-04-08T00:36:00.952Z,99695.84
2023-04-08T00:37:03.500Z,99683.63
2023-04-08T00:38:07.965Z,99685.56
2023-04-08T00:39:10.261Z,99685.88
2023-04-08T00:40:12.680Z,99690.09
2023-04-08T00:41:14.935Z,99689.44
2023-04-08T00:42:17.430Z,99682.31
2023-04-08T00:43:21.160Z,99692.91
2023-04-08T00:44:23.317Z,99698.81
2023-04-08T00:45:25.855Z,99696.47
2023-04-08T00:46:28.578Z,99690.19
2023-04-08T00:47:31.583Z,99693.84
2023-04-08T00:48:34.075Z,99691.19
2023-04-08T00:49:36.288Z,99691.84
2023-04-08T00:50:38.494Z,99689.22
2023-04-08T00:51:41.237Z,99692.84
2023-04-08T00:52:43.547Z,99691.16
2023-04-08T00:53:46.023Z,99696.44
2023-04-08T00:54:48.204Z,99700.81
2023-04-08T00:55:50.328Z,99698.81
2023-04-08T00:56:52.581Z,99700.88
2023-04-08T00:57:56.728Z,99697.50
2023-04-08T00:59:00.539Z,99699.13
2023-04-08T01:00:05.806Z,99707.03
2023-04-08T01:01:14.895Z,99697.38
2023-04-08T01:02:42.268Z,99693.81
2023-04-08T01:04:07.524Z,99698.91
2023-04-08T01:05:14.658Z,99695.19
2023-04-08T01:06:42.750Z,99696.41
2023-04-08T01:07:47.728Z,99699.06
2023-04-08T01:08:52.372Z,99690.91
2023-04-08T01:09:57.581Z,99685.84
2023-04-08T01:11:03.197Z,99695.50
2023-04-08T01:12:09.218Z,99686.53
2023-04-08T01:13:17.522Z,99697.00
2023-04-08T01:14:23.899Z,99689.94
2023-04-08T01:15:31.143Z,99698.78
2023-04-08T01:16:34.979Z,99695.28
2023-04-08T01:17:38.232Z,99690.91
2023-04-08T01:18:43.333Z,99698.06
2023-04-08T01:19:47.795Z,99687.63
2023-04-08T01:20:51.271Z,99688.44
2023-04-08T01:21:58.637Z,99695.38
2023-04-08T01:23:00.780Z,99688.50
2023-04-08T01:24:20.300Z,99690.06
2023-04-08T01:25:27.118Z,99693.81
2023-04-08T01:26:30.852Z,99697.25
2023-04-08T01:27:33.850Z,99694.66
2023-04-08T01:28:38.009Z,99687.69
2023-04-08T01:29:41.241Z,99689.34
2023-04-08T01:30:44.860Z,99687.69
2023-04-08T01:31:48.004Z,99694.69
2023-04-08T01:32:52.127Z,99682.44
2023-04-08T01:33:56.335Z,99686.56
2023-04-08T01:35:00.697Z,99685.56
2023-04-08T01:36:05.945Z,99684.72
2023-04-08T01:37:08.591Z,99681.38
2023-04-08T01:38:16.525Z,99683.00
2023-04-08T01:39:21.408Z,99689.97
2023-04-08T01:40:23.804Z,99691.75
2023-04-08T01:41:26.576Z,99692.78
2023-04-08T01:42:29.842Z,99693.78
2023-04-08T01:43:34.970Z,99687.03
2023-04-08T01:44:38.607Z,99684.19
2023-04-08T01:45:41.583Z,99684.97
2023-04-08T01:46:44.182Z,99684.97
2023-04-08T01:47:49.486Z,99685.84
2023-04-08T01:48:52.897Z,99688.69
2023-04-08T01:49:56.299Z,99684.19
2023-04-08T01:51:00.046Z,99685.81
2023-04-08T01:52:03.305Z,99680.47
2023-04-08T01:53:08.265Z,99681.72
2023-04-08T01:54:10.644Z,99680.00
2023-04-08T01:55:12.986Z,99686.03
2023-04-08T01:56:15.787Z,99683.19
2023-04-08T01:57:23.873Z,99675.53
2023-04-08T01:58:35.018Z,99680.06
2023-04-08T01:59:38.651Z,99683.44
2023-04-08T02:02:11.108Z,99686.25
2023-04-08T02:03:17.669Z,99686.31
2023-04-08T02:04:21.878Z,99694.91
2023-04-08T02:05:24.135Z,99689.69
2023-04-08T02:06:29.242Z,99687.66
2023-04-08T02:07:31.449Z,99681.63
2023-04-08T02:08:36.362Z,99686.72
2023-04-08T02:09:38.555Z,99687.41
2023-04-08T02:10:41.063Z,99685.91
2023-04-08T02:11:43.259Z,99677.97
2023-04-08T02:12:46.730Z,99682.28
2023-04-08T02:13:49.150Z,99684.00
2023-04-08T02:14:51.698Z,99687.50
2023-04-08T02:16:01.325Z,99684.78
2023-04-08T02:17:13.669Z,99691.22
2023-04-08T02:18:22.601Z,99694.22
2023-04-08T02:19:36.213Z,99685.28
2023-04-08T02:20:48.259Z,99689.75
2023-04-08T02:21:56.440Z,99686.97
2023-04-08T02:23:13.272Z,99692.91
2023-04-08T02:24:17.449Z,99689.41
2023-04-08T02:25:24.051Z,99692.81
2023-04-08T02:26:27.211Z,99685.97
2023-04-08T02:27:35.358Z,99691.16
2023-04-08T02:28:37.759Z,99693.06
2023-04-08T02:29:42.249Z,99693.16
2023-04-08T02:30:49.878Z,99696.13
2023-04-08T02:31:53.429Z,99690.63
2023-04-08T02:32:57.794Z,99690.53
2023-04-08T02:34:00.772Z,99696.56
2023-04-08T02:35:06.610Z,99695.72
2023-04-08T02:36:11.161Z,99694.63
2023-04-08T02:37:13.514Z,99691.31
2023-04-08T02:38:15.777Z,99685.25
2023-04-08T02:39:18.854Z,99699.75
2023-04-08T02:40:28.591Z,99693.47
2023-04-08T02:41:31.816Z,99694.97
2023-04-08T02:42:34.070Z,99693.25
2023-04-08T02:43:36.781Z,99681.00
2023-04-08T02:44:41.868Z,99681.22
2023-04-08T02:45:44.874Z,99695.16
2023-04-08T02:46:47.445Z,99684.53
2023-04-08T02:47:49.681Z,99681.94
2023-04-08T02:48:51.992Z,99685.22
2023-04-08T02:49:55.142Z,99685.22
2023-04-08T02:50:57.443Z,99686.91
2023-04-08T02:51:59.680Z,99691.34
2023-04-08T02:53:01.886Z,99694.06
2023-04-08T02:54:06.326Z,99691.44
2023-04-08T02:55:09.962Z,99690.91
2023-04-08T02:56:12.669Z,99691.56
2023-04-08T02:57:14.973Z,99688.03
2023-04-08T02:58:17.286Z,99696.84
2023-04-08T02:59:19.484Z,99696.94
2023-04-08T03:00:21.840Z,99690.81
2023-04-08T03:01:24.661Z,99691.66
2023-04-08T03:02:27.000Z,99691.53
2023-04-08T03:03:30.353Z,99694.97
2023-04-08T03:04:32.628Z,99681.81
2023-04-08T03:05:35.192Z,99699.19
2023-04-08T03:06:37.425Z,99688.81
2023-04-08T03:07:39.806Z,99694.06
2023-04-08T03:08:45.478Z,99684.38
2023-04-08T03:09:47.709Z,99683.72
2023-04-08T03:10:50.501Z,99683.75
2023-04-08T03:11:54.763Z,99687.41
2023-04-08T03:12:57.075Z,99689.31
2023-04-08T03:13:59.254Z,99687.66
2023-04-08T03:15:01.672Z,99696.44
2023-04-08T03:16:04.052Z,99691.00
2023-04-08T03:17:06.435Z,99689.38
2023-04-08T03:18:08.979Z,99693.66
2023-04-08T03:19:11.197Z,99694.66
2023-04-08T03:20:13.405Z,99685.00
2023-04-08T03:21:15.678Z,99694.44
2023-04-08T03:22:19.259Z,99695.22
2023-04-08T03:23:21.417Z,99693.47
2023-04-08T03:24:23.567Z,99689.13
2023-04-08T03:25:26.372Z,99704.66
2023-04-08T03:26:29.089Z,99696.09
2023-04-08T03:27:31.372Z,99697.84
2023-04-08T03:28:33.515Z,99692.59
2023-04-08T03:29:35.951Z,99697.03
2023-04-08T03:30:38.353Z,99695.91
2023-04-08T03:31:40.683Z,99700.31
2023-04-08T03:32:43.011Z,99689.84
2023-04-08T03:33:45.229Z,99695.78
2023-04-08T03:34:49.555Z,99690.00
2023-04-08T03:35:51.901Z,99703.25
2023-04-08T03:36:54.171Z,99705.25
2023-04-08T03:37:56.745Z,99710.75
2023-04-08T03:39:00.269Z,99708.72
2023-04-08T03:40:02.625Z,99710.34
2023-04-08T03:46:13.579Z,99716.06
2023-04-08T03:47:15.890Z,99712.47
2023-04-08T03:48:18.121Z,99716.06
2023-04-08T03:49:20.409Z,99709.94
2023-04-08T03:50:22.767Z,99704.66
2023-04-08T03:51:25.426Z,99715.25
2023-04-08T03:52:27.644Z,99717.00
2023-04-08T03:53:29.911Z,99715.22
2023-04-08T03:54:32.160Z,99714.84
2023-04-08T03:55:34.300Z,99705.25
2023-04-08T03:56:36.470Z,99706.25
2023-04-08T03:57:38.607Z,99713.22
2023-04-08T03:58:40.758Z,99709.75
2023-04-08T03:59:42.920Z,99714.84
2023-04-08T04:00:47.662Z,99709.72
2023-04-08T04:01:51.247Z,99713.22
2023-04-08T04:02:53.629Z,99710.41
2023-04-08T04:03:56.011Z,99710.97
2023-04-08T04:04:58.472Z,99720.84
2023-04-08T04:06:00.685Z,99713.22
2023-04-08T04:07:03.057Z,99713.19
2023-04-08T04:08:05.772Z,99712.34
2023-04-08T04:09:08.034Z,99710.47
2023-04-08T04:10:10.835Z,99714.84
2023-04-08T04:11:13.075Z,99704.25
2023-04-08T04:12:15.607Z,99715.56
2023-04-08T04:13:19.512Z,99701.91
2023-04-08T04:14:21.744Z,99713.25
2023-04-08T04:15:23.980Z,99714.97
2023-04-08T04:16:26.143Z,99711.38
2023-04-08T04:17:28.457Z,99714.03
2023-04-08T04:18:30.785Z,99708.91
2023-04-08T04:19:33.063Z,99706.59
2023-04-08T04:20:36.191Z,99710.16
2023-04-08T04:21:38.421Z,99716.06
2023-04-08T04:22:40.696Z,99716.72
2023-04-08T04:23:42.912Z,99717.63
2023-04-08T04:24:48.733Z,99719.34
2023-04-08T04:25:51.077Z,99712.38
2023-04-08T04:26:53.283Z,99721.03
2023-04-08T04:27:55.452Z,99718.41
2023-04-08T04:28:57.730Z,99720.91
2023-04-08T04:30:01.069Z,99722.38
2023-04-08T04:31:03.429Z,99717.81
2023-04-08T04:32:06.985Z,99718.97
2023-04-08T04:33:09.209Z,99727.13
2023-04-08T04:34:13.878Z,99721.91
2023-04-08T04:35:16.089Z,99724.53
2023-04-08T04:36:19.491Z,99716.94
2023-04-08T04:37:21.742Z,99727.53
2023-04-08T04:38:23.902Z,99726.00
2023-04-08T04:39:26.315Z,99723.19
2023-04-08T04:40:28.708Z,99723.09
2023-04-08T04:41:30.919Z,99721.50
2023-04-08T04:42:33.217Z,99730.31
2023-04-08T04:43:35.663Z,99725.06
2023-04-08T04:44:37.938Z,99725.13
2023-04-08T04:45:40.527Z,99728.66
2023-04-08T04:46:42.766Z,99725.03
2023-04-08T04:47:45.276Z,99724.88
2023-04-08T04:48:47.904Z,99730.09
2023-04-08T04:49:50.266Z,99732.59
2023-04-08T04:50:59.468Z,99730.25
2023-04-08T04:52:01.689Z,99729.41
2023-04-08T04:53:04.088Z,99734.72
2023-04-08T04:54:06.441Z,99736.28
2023-04-08T04:55:09.056Z,99739.03
2023-04-08T04:56:11.237Z,99740.78
2023-04-08T04:57:13.409Z,99732.78
2023-04-08T04:58:16.136Z,99732.66
2023-04-08T04:59:18.282Z,99737.75
2023-04-08T05:00:20.746Z,99731.66
2023-04-08T05:01:22.945Z,99736.63
2023-04-08T05:02:25.306Z,99735.66
2023-04-08T05:03:27.892Z,99745.94
2023-04-08T05:04:30.163Z,99742.47
2023-04-08T05:05:32.399Z,99745.13
2023-04-08T05:06:34.921Z,99741.25
2023-04-08T05:07:38.001Z,99741.31
2023-04-08T05:08:40.160Z,99741.13
2023-04-08T05:09:42.483Z,99748.06
2023-04-08T05:10:44.676Z,99751.63
2023-04-08T05:11:46.859Z,99742.00
2023-04-08T05:12:49.245Z,99749.75
2023-04-08T05:13:51.471Z,99745.31
2023-04-08T05:14:53.620Z,99743.53
2023-04-08T05:15:55.867Z,99748.75
2023-04-08T05:16:58.201Z,99742.75
2023-04-08T05:18:00.641Z,99744.25
2023-04-08T05:19:02.861Z,99753.22
2023-04-08T05:20:05.637Z,99740.44
2023-04-08T05:21:07.994Z,99746.50
2023-04-08T05:22:11.436Z,99749.22
2023-04-08T05:23:13.755Z,99752.88
2023-04-08T05:24:16.137Z,99756.72
2023-04-08T05:25:18.526Z,99748.97
2023-04-08T05:26:21.742Z,99752.41
2023-04-08T05:27:23.897Z,99757.63
2023-04-08T05:28:26.210Z,99753.91
2023-04-08T05:29:28.393Z,99761.72
2023-04-08T05:30:31.076Z,99759.97
2023-04-08T05:31:33.418Z,99763.41
2023-04-08T05:32:35.719Z,99763.25
2023-04-08T05:33:38.177Z,99765.78
2023-04-08T05:34:40.566Z,99756.19
2023-04-08T05:35:42.769Z,99765.91
2023-04-08T05:36:45.117Z,99755.56
2023-04-08T05:37:47.281Z,99761.47
2023-04-08T05:38:50.114Z,99753.69
2023-04-08T05:39:52.463Z,99758.13
2023-04-08T05:40:54.674Z,99762.66
2023-04-08T05:41:56.887Z,99764.53
2023-04-08T05:42:59.197Z,99768.88
2023-04-08T05:44:01.555Z,99764.56
2023-04-08T05:45:04.259Z,99768.88
2023-04-08T05:46:10.416Z,99763.81
2023-04-08T05:47:13.090Z,99762.19
2023-04-08T05:48:16.847Z,99768.06
2023-04-08T05:49:19.057Z,99772.09
2023-04-08T05:50:21.320Z,99769.16
2023-04-08T05:51:23.533Z,99769.97
2023-04-08T05:52:25.693Z,99774.41
2023-04-08T05:53:27.915Z,99775.34
2023-04-08T05:54:30.333Z,99780.34
2023-04-08T05:55:32.546Z,99777.53
2023-04-08T05:56:34.957Z,99777.25
2023-04-08T05:57:37.474Z,99770.94
2023-04-08T05:58:39.773Z,99765.66
2023-04-08T05:59:42.069Z,99769.81
2023-04-08T06:00:44.307Z,99775.56
2023-04-08T06:01:46.634Z,99781.56
2023-04-08T06:02:49.221Z,99783.06
2023-04-08T06:03:52.821Z,99774.44
2023-04-08T06:04:55.412Z,99782.31
2023-04-08T06:05:57.636Z,99790.31
2023-04-08T06:07:02.988Z,99783.91
2023-04-08T06:08:05.391Z,99774.00
2023-04-08T06:09:07.721Z,99774.56
2023-04-08T06:10:10.421Z,99767.50
2023-04-08T06:11:12.679Z,99779.53
2023-04-08T06:12:15.445Z,99789.28
2023-04-08T06:13:17.777Z,99768.19
2023-04-08T06:14:20.791Z,99783.91
2023-04-08T06:15:23.170Z,99782.88
2023-04-08T06:16:25.407Z,99784.41
2023-04-08T06:17:28.010Z,99779.88
2023-04-08T06:18:30.365Z,99780.41
2023-04-08T06:19:32.552Z,99789.16
2023-04-08T06:20:36.155Z,99787.16
2023-04-08T06:21:38.338Z,99777.84
2023-04-08T06:22:41.588Z,99792.50
2023-04-08T06:23:43.774Z,99796.22
2023-04-08T06:24:48.085Z,99794.69
2023-04-08T06:25:50.279Z,99799.78
2023-04-08T06:26:53.070Z,99797.75
2023-04-08T06:27:55.242Z,99792.09
2023-04-08T06:28:57.399Z,99799.13
2023-04-08T06:29:59.973Z,99793.97
2023-04-08T06:31:02.181Z,99796.22
2023-04-08T06:32:06.018Z,99798.97
2023-04-08T06:33:08.500Z,99792.88
2023-04-08T06:34:10.625Z,99795.88
2023-04-08T06:35:13.523Z,99800.75
2023-04-08T06:36:16.238Z,99796.16
2023-04-08T06:37:18.506Z,99798.94
2023-04-08T06:38:20.656Z,99793.88
2023-04-08T06:39:23.102Z,99802.22
2023-04-08T06:40:25.388Z,99798.06
2023-04-08T06:41:27.534Z,99796.63
2023-04-08T06:42:38.366Z,99795.06
2023-04-08T06:43:55.684Z,99800.13
2023-04-08T06:44:58.595Z,99796.50
2023-04-08T06:46:01.264Z,99794.41
2023-04-08T06:47:03.569Z,99795.69
2023-04-08T06:48:08.955Z,99806.63
2023-04-08T06:49:12.892Z,99801.44
2023-04-08T06:50:15.332Z,99799.13
2023-04-08T06:51:18.475Z,99798.31
2023-04-08T06:52:20.669Z,99799.13
2023-04-08T06:53:27.004Z,99797.75
2023-04-08T06:54:29.345Z,99800.59
2023-04-08T06:55:31.601Z,99794.19
2023-04-08T06:56:33.781Z,99786.41
2023-04-08T06:57:37.217Z,99802.78
2023-04-08T06:58:39.434Z,99801.59
2023-04-08T06:59:41.644Z,99799.31
2023-04-08T07:00:44.037Z,99798.16
2023-04-08T07:01:46.752Z,99791.13
2023-04-08T07:02:49.224Z,99801.97
2023-04-08T07:03:51.638Z,99803.41
2023-04-08T07:04:53.931Z,99802.59
2023-04-08T07:05:56.162Z,99810.47
2023-04-08T07:06:58.491Z,99804.69
2023-04-08T07:08:01.011Z,99803.28
2023-04-08T07:09:03.301Z,99802.47
2023-04-08T07:10:06.974Z,99804.22
2023-04-08T07:11:11.202Z,99807.50
2023-04-08T07:12:13.472Z,99808.28
2023-04-08T07:13:16.397Z,99815.69
2023-04-08T07:14:19.544Z,99817.59
2023-04-08T07:15:21.702Z,99810.63
2023-04-08T07:16:23.933Z,99813.75
2023-04-08T07:17:26.550Z,99810.25
2023-04-08T07:18:28.952Z,99809.81
2023-04-08T07:19:33.853Z,99817.44
2023-04-08T07:20:38.238Z,99824.97
2023-04-08T07:21:41.442Z,99815.94
2023-04-08T07:22:43.759Z,99810.69
2023-04-08T07:23:48.490Z,99816.84
2023-04-08T07:24:50.651Z,99810.19
2023-04-08T07:25:53.897Z,99820.41
2023-04-08T07:26:56.711Z,99818.59
2023-04-08T07:27:58.904Z,99806.94
2023-04-08T07:29:02.811Z,99809.47
2023-04-08T07:30:06.100Z,99813.69
2023-04-08T07:31:13.006Z,99809.72
2023-04-08T07:32:16.157Z,99814.44
2023-04-08T07:33:18.534Z,99812.13
2023-04-08T07:34:20.703Z,99812.69
2023-04-08T07:35:24.610Z,99808.03
2023-04-08T07:36:26.866Z,99814.69
2023-04-08T07:37:29.323Z,99817.66
2023-04-08T07:38:31.603Z,99815.19
2023-04-08T07:39:33.776Z,99812.78
2023-04-08T07:40:36.054Z,99818.00
2023-04-08T07:41:38.260Z,99812.78
2023-04-08T07:42:40.918Z,99818.69
2023-04-08T07:43:44.218Z,99818.19
2023-04-08T07:44:46.591Z,99830.41
2023-04-08T07:45:48.814Z,99822.63
2023-04-08T07:46:51.826Z,99832.47
2023-04-08T07:47:54.210Z,99829.53
2023-04-08T07:48:56.407Z,99827.72
2023-04-08T07:49:58.609Z,99824.25
2023-04-08T07:51:09.667Z,99830.03
2023-04-08T07:52:12.698Z,99831.88
2023-04-08T07:53:15.719Z,99821.38
2023-04-08T07:54:17.904Z,99824.38
2023-04-08T07:55:20.966Z,99826.75
2023-04-08T07:56:23.241Z,99822.28
2023-04-08T07:57:26.521Z,99822.22
2023-04-08T07:58:28.916Z,99820.22
2023-04-08T07:59:32.147Z,99830.75
2023-04-08T08:00:34.437Z,99823.78
2023-04-08T08:01:36.916Z,99825.31
2023-04-08T08:02:39.328Z,99830.59
2023-04-08T08:03:42.029Z,99833.84
2023-04-08T08:04:44.811Z,99837.81
2023-04-08T08:05:47.278Z,99837.66
2023-04-08T08:06:49.538Z,99830.66
2023-04-08T08:07:51.782Z,99843.69
2023-04-08T08:08:54.036Z,99841.41
2023-04-08T08:09:56.317Z,99835.06
2023-04-08T08:10:59.060Z,99850.06
2023-04-08T08:12:01.470Z,99838.88
2023-04-08T08:13:03.641Z,99845.75
2023-04-08T08:14:07.933Z,99844.66
2023-04-08T08:15:10.686Z,99854.16
2023-04-08T08:16:12.983Z,99855.19
2023-04-08T08:17:15.194Z,99851.91
2023-04-08T08:18:17.588Z,99852.78
2023-04-08T08:19:21.030Z,99857.88
2023-04-08T08:20:23.230Z,99860.44
2023-04-08T08:21:26.529Z,99856.84
2023-04-08T08:22:28.782Z,99851.16
2023-04-08T08:23:31.407Z,99852.47
2023-04-08T08:24:33.706Z,99851.69
2023-04-08T08:25:35.874Z,99851.66
2023-04-08T08:26:38.380Z,99853.50
2023-04-08T08:27:42.234Z,99852.09
2023-04-08T08:28:44.462Z,99845.09
2023-04-08T08:29:47.418Z,99850.66
2023-04-08T08:30:49.713Z,99848.59
2023-04-08T08:31:52.056Z,99845.69
2023-04-08T08:32:54.476Z,99849.28
2023-04-08T08:33:56.759Z,99844.66
2023-04-08T08:34:59.095Z,99847.34
2023-04-08T08:36:01.689Z,99845.97
2023-04-08T08:37:03.997Z,99848.31
2023-04-08T08:38:06.236Z,99843.25
2023-04-08T08:39:08.485Z,99859.06
2023-04-08T08:40:11.483Z,99856.44
2023-04-08T08:41:13.953Z,99857.41
2023-04-08T08:42:23.043Z,99862.13
2023-04-08T08:43:26.501Z,99863.03
2023-04-08T08:44:30.659Z,99857.59
2023-04-08T08:45:33.472Z,99858.03
2023-04-08T08:46:35.910Z,99854.47
2023-04-08T08:47:38.197Z,99865.44
2023-04-08T08:48:40.764Z,99861.88
2023-04-08T08:49:43.897Z,99860.63
2023-04-08T08:50:46.603Z,99858.25
2023-04-08T08:51:50.395Z,99868.41
2023-04-08T08:52:52.997Z,99857.75
2023-04-08T08:53:55.261Z,99862.94
2023-04-08T08:54:59.153Z,99858.13
2023-04-08T08:56:17.288Z,99858.44
2023-04-08T08:57:20.941Z,99851.84
2023-04-08T08:58:28.107Z,99862.56
2023-04-08T08:59:30.441Z,99860.06
2023-04-08T09:00:34.793Z,99860.66
2023-04-08T09:01:39.302Z,99867.31
2023-04-08T09:02:42.532Z,99861.56
2023-04-08T09:03:45.011Z,99861.78
2023-04-08T09:05:03.678Z,99864.59
2023-04-08T09:06:06.207Z,99857.38
2023-04-08T09:07:10.714Z,99862.72
2023-04-08T09:08:29.089Z,99862.03
2023-04-08T09:09:48.468Z,99858.00
2023-04-08T09:10:50.651Z,99861.78
2023-04-08T09:12:04.467Z,99857.50
2023-04-08T09:13:06.748Z,99854.19
2023-04-08T09:14:22.242Z,99863.25
2023-04-08T09:15:25.153Z,99863.13
2023-04-08T09:16:28.074Z,99861.72
2023-04-08T09:17:36.581Z,99855.56
2023-04-08T09:18:40.906Z,99871.28
2023-04-08T09:20:15.070Z,99860.72
2023-04-08T09:21:18.155Z,99865.72
2023-04-08T09:22:20.585Z,99861.94
2023-04-08T09:23:22.820Z,99867.50
2023-04-08T09:24:31.272Z,99849.66
2023-04-08T09:25:34.238Z,99857.94
2023-04-08T09:26:37.694Z,99865.00
2023-04-08T09:27:39.954Z,99865.53
2023-04-08T09:28:44.188Z,99850.78
2023-04-08T09:29:46.463Z,99856.03
2023-04-08T09:30:48.693Z,99860.69
2023-04-08T09:31:55.989Z,99861.13
2023-04-08T09:32:58.668Z,99866.19
2023-04-08T09:34:09.034Z,99857.66
2023-04-08T09:35:11.840Z,99859.16
2023-04-08T09:36:16.035Z,99865.66
2023-04-08T09:37:18.255Z,99854.47
2023-04-08T09:38:22.221Z,99846.03
2023-04-08T09:39:24.492Z,99861.78
2023-04-08T09:40:27.811Z,99854.84
2023-04-08T09:41:34.125Z,99852.59
2023-04-08T09:42:52.014Z,99850.91
2023-04-08T09:43:55.701Z,99851.47
2023-04-08T09:44:59.008Z,99857.88
2023-04-08T09:46:05.942Z,99846.63
2023-04-08T09:47:20.681Z,99854.78
2023-04-08T09:48:31.742Z,99850.94
2023-04-08T09:49:56.313Z,99851.50
2023-04-08T09:51:00.023Z,99862.78
2023-04-08T09:52:11.317Z,99866.53
2023-04-08T09:53:26.346Z,99865.84
2023-04-08T09:54:53.252Z,99856.03
2023-04-08T09:55:57.375Z,99865.72
2023-04-08T09:57:10.651Z,99858.34
2023-04-08T09:58:18.968Z,99859.81
2023-04-08T09:59:27.246Z,99861.13
2023-04-08T10:00:53.394Z,99854.09
2023-04-08T10:01:58.990Z,99858.53
2023-04-08T10:03:15.594Z,99847.38
2023-04-08T10:04:23.018Z,99857.72
2023-04-08T10:05:26.108Z,99857.91
2023-04-08T10:06:29.620Z,99851.94
2023-04-08T10:07:31.862Z,99849.38
2023-04-08T10:08:34.593Z,99861.31
2023-04-08T10:09:38.551Z,99853.91
2023-04-08T10:10:41.633Z,99868.69
2023-04-08T10:11:43.964Z,99863.19
2023-04-08T10:12:47.559Z,99858.53
2023-04-08T10:13:51.312Z,99865.88
2023-04-08T10:15:25.382Z,99878.59
2023-04-08T10:16:28.210Z,99875.09
2023-04-08T10:17:36.489Z,99874.66
2023-04-08T10:18:39.183Z,99873.84
2023-04-08T10:19:41.687Z,99870.50
2023-04-08T10:20:49.078Z,99870.00
2023-04-08T10:21:51.427Z,99880.75
2023-04-08T10:22:53.662Z,99877.72
2023-04-08T10:24:00.953Z,99881.97
2023-04-08T10:25:18.170Z,99872.88
2023-04-08T10:26:37.713Z,99878.41
2023-04-08T10:27:43.301Z,99869.00
2023-04-08T10:28:45.690Z,99870.00
2023-04-08T10:29:48.404Z,99870.47
2023-04-08T10:30:55.513Z,99877.56
2023-04-08T10:31:57.888Z,99879.19
2023-04-08T10:33:01.432Z,99869.00
2023-04-08T10:34:19.401Z,99864.59
2023-04-08T10:35:38.247Z,99871.06
2023-04-08T10:36:41.264Z,99873.00
2023-04-08T10:37:44.074Z,99872.16
2023-04-08T10:38:47.254Z,99870.03
2023-04-08T10:39:51.387Z,99869.44
2023-04-08T10:40:54.483Z,99870.06
2023-04-08T10:41:56.773Z,99872.25
2023-04-08T10:42:59.816Z,99877.25
2023-04-08T10:44:04.697Z,99876.00
2023-04-08T10:45:07.419Z,99868.41
2023-04-08T10:46:12.521Z,99863.03
2023-04-08T10:47:15.066Z,99868.16
2023-04-08T10:48:18.808Z,99864.00
2023-04-08T10:49:22.579Z,99866.22
2023-04-08T10:50:24.828Z,99867.53
2023-04-08T10:51:33.725Z,99859.75
2023-04-08T10:52:36.232Z,99859.53
2023-04-08T10:53:41.947Z,99856.09
2023-04-08T10:54:48.308Z,99865.28
2023-04-08T10:55:51.477Z,99863.84
2023-04-08T10:56:54.699Z,99869.81
2023-04-08T10:58:09.199Z,99866.63
2023-04-08T10:59:16.775Z,99859.78
2023-04-08T11:00:31.871Z,99870.84
2023-04-08T11:01:41.293Z,99853.53
2023-04-08T11:02:43.672Z,99856.34
2023-04-08T11:03:47.246Z,99858.53
2023-04-08T11:04:50.689Z,99856.31
2023-04-08T11:05:53.905Z,99859.38
2023-04-08T11:06:56.122Z,99860.19
2023-04-08T11:07:59.550Z,99855.16
2023-04-08T11:09:04.102Z,99855.88
2023-04-08T11:10:07.179Z,99850.31
2023-04-08T11:11:10.739Z,99854.81
2023-04-08T11:12:21.531Z,99852.22
2023-04-08T11:13:23.994Z,99854.28
2023-04-08T11:14:26.689Z,99848.84
2023-04-08T11:15:31.015Z,99852.00
2023-04-08T11:16:34.671Z,99854.81
2023-04-08T11:17:37.627Z,99856.03
2023-04-08T11:18:40.998Z,99855.00
2023-04-08T11:19:43.333Z,99856.72
2023-04-08T11:20:45.832Z,99852.03
2023-04-08T11:21:48.216Z,99851.50
2023-04-08T11:22:50.483Z,99844.94
2023-04-08T11:23:54.074Z,99857.00
2023-04-08T11:24:57.200Z,99853.06
2023-04-08T11:26:00.571Z,99853.09
2023-04-08T11:27:06.074Z,99857.31
2023-04-08T11:28:08.969Z,99859.00
2023-04-08T11:29:14.851Z,99861.53
2023-04-08T11:30:17.117Z,99861.50
2023-04-08T11:31:23.518Z,99859.44
2023-04-08T11:32:28.839Z,99852.47
2023-04-08T11:33:35.277Z,99855.22
2023-04-08T11:34:40.466Z,99859.00
2023-04-08T11:35:44.157Z,99851.31
2023-04-08T11:36:46.373Z,99860.78
2023-04-08T11:37:49.639Z,99860.28
2023-04-08T11:38:54.084Z,99859.88
2023-04-08T11:39:57.042Z,99862.44
2023-04-08T11:40:59.866Z,99862.00
2023-04-08T11:42:02.066Z,99859.66
2023-04-08T11:43:11.552Z,99859.59
2023-04-08T11:44:13.802Z,99859.59
2023-04-08T11:45:17.164Z,99866.66
2023-04-08T11:46:20.809Z,99851.22
2023-04-08T11:47:31.964Z,99856.81
2023-04-08T11:48:34.847Z,99857.56
2023-04-08T11:49:46.952Z,99860.72
2023-04-08T11:51:03.676Z,99850.53
2023-04-08T11:52:05.968Z,99855.94
2023-04-08T11:53:19.750Z,99855.53
2023-04-08T11:54:28.972Z,99854.47
2023-04-08T11:55:32.812Z,99844.25
2023-04-08T11:56:47.035Z,99856.38
2023-04-08T11:57:49.585Z,99854.88
2023-04-08T11:58:52.314Z,99847.25
2023-04-08T11:59:54.495Z,99852.03
2023-04-08T12:00:56.635Z,99849.25
2023-04-08T12:01:59.264Z,99849.00
2023-04-08T12:03:01.679Z,99846.53
2023-04-08T12:04:04.775Z,99854.19
2023-04-08T12:05:07.852Z,99846.28
2023-04-08T12:06:11.064Z,99848.22
2023-04-08T12:07:14.046Z,99847.16
2023-04-08T12:08:16.228Z,99846.56
2023-04-08T12:09:18.536Z,99863.94
2023-04-08T12:10:21.027Z,99844.16
2023-04-08T12:11:24.708Z,99852.59
2023-04-08T12:12:26.947Z,99851.44
2023-04-08T12:13:29.150Z,99857.75
2023-04-08T12:14:31.604Z,99853.06
2023-04-08T12:15:33.836Z,99853.78
2023-04-08T12:16:36.371Z,99858.59
2023-04-08T12:17:38.867Z,99860.66
2023-04-08T12:18:41.693Z,99866.41
2023-04-08T12:19:46.841Z,99874.81
2023-04-08T12:20:48.973Z,99860.09
2023-04-08T12:21:51.226Z,99863.38
2023-04-08T12:22:53.560Z,99865.41
2023-04-08T12:23:55.877Z,99867.44
2023-04-08T12:24:59.306Z,99871.31
2023-04-08T12:26:02.102Z,99863.66
2023-04-08T12:27:05.081Z,99870.66
2023-04-08T12:28:10.147Z,99862.13
2023-04-08T12:29:13.246Z,99867.59
2023-04-08T12:30:16.619Z,99867.56
2023-04-08T12:31:19.043Z,99867.34
2023-04-08T12:32:21.649Z,99873.97
2023-04-08T12:33:23.988Z,99876.91
2023-04-08T12:34:26.693Z,99868.53
2023-04-08T12:35:29.161Z,99875.59
2023-04-08T12:36:31.864Z,99870.16
2023-04-08T12:37:34.499Z,99866.09
2023-04-08T12:38:37.379Z,99871.09